Time;durP1;ratioP1;P1;durP2;ratioP2;P2;SDS_P1;SDS_P2;PMS_P1;PMS_P2;Temp;Humidity;BMP_temperature;BMP_pressure;BME280_temperature;BME280_humidity;BME280_pressure;Samples;Min_cycle;Max_cycle;Signal;HPM_P1;HPM_P2
2023/06/06 00:01:34;;;;;;;8.90;4.57;;;19.90;99.90;;;;;;5031010;28;20050;-76
2023/06/06 00:04:01;;;;;;;9.15;4.00;;;19.80;99.90;;;;;;5027953;28;20041;-76
2023/06/06 00:06:33;;;;;;;5.63;3.60;;;19.80;99.90;;;;;;5030786;28;20128;-76
2023/06/06 00:09:00;;;;;;;7.80;4.00;;;19.80;99.90;;;;;;5030422;28;20045;-76
2023/06/06 00:11:30;;;;;;;8.75;4.00;;;19.70;99.90;;;;;;5031026;28;20041;-76
2023/06/06 00:13:57;;;;;;;6.45;3.78;;;19.70;99.90;;;;;;5027970;28;20046;-76
2023/06/06 00:16:27;;;;;;;5.03;4.00;;;19.60;99.90;;;;;;5028809;28;20125;-76
2023/06/06 00:18:55;;;;;;;;;;;19.60;99.90;;;;;;5030835;28;20045;-76
2023/06/06 00:21:22;;;;;;;5.60;3.75;;;19.50;99.90;;;;;;5030841;28;19921;-75
2023/06/06 00:23:49;;;;;;;8.15;3.72;;;19.50;99.90;;;;;;5030911;28;20041;-74
2023/06/06 00:26:16;;;;;;;7.40;3.90;;;19.50;99.90;;;;;;5030770;28;20084;-75
2023/06/06 00:28:42;;;;;;;7.28;4.45;;;19.40;99.90;;;;;;5030349;28;20080;-75
2023/06/06 00:31:09;;;;;;;4.50;3.60;;;19.30;99.90;;;;;;5030848;28;20041;-74
2023/06/06 00:33:36;;;;;;;10.10;4.20;;;19.30;99.90;;;;;;5030650;28;20045;-74
2023/06/06 00:36:03;;;;;;;6.47;3.95;;;19.30;99.90;;;;;;5030392;28;20076;-74
2023/06/06 00:38:31;;;;;;;6.32;4.18;;;19.20;99.90;;;;;;5029768;28;20465;-75
2023/06/06 00:40:58;;;;;;;7.28;3.25;;;19.20;99.90;;;;;;5030576;28;20085;-75
2023/06/06 00:43:24;;;;;;;6.47;3.83;;;19.20;99.90;;;;;;5029356;28;20107;-75
2023/06/06 00:45:51;;;;;;;5.65;3.72;;;19.10;99.90;;;;;;5026761;28;20085;-75
2023/06/06 00:48:20;;;;;;;8.85;3.92;;;19.10;99.90;;;;;;5030034;28;20424;-74
2023/06/06 00:50:47;;;;;;;4.32;3.17;;;19.10;99.90;;;;;;5033581;28;20464;-75
2023/06/06 00:53:14;;;;;;;6.72;4.22;;;19.00;99.90;;;;;;5032873;28;20482;-74
2023/06/06 00:55:41;;;;;;;8.05;3.95;;;19.00;99.90;;;;;;5033416;28;20080;-74
2023/06/06 00:58:09;;;;;;;7.72;4.20;;;19.00;99.90;;;;;;5033439;28;20135;-75
2023/06/06 01:00:38;;;;;;;6.95;3.45;;;18.90;99.90;;;;;;5033316;28;20045;-75
2023/06/06 01:03:09;;;;;;;7.32;3.88;;;18.90;99.90;;;;;;5031922;28;20123;-75
2023/06/06 01:05:37;;;;;;;5.15;3.70;;;18.80;99.90;;;;;;5034207;28;20038;-74
2023/06/06 01:08:04;;;;;;;8.38;3.47;;;18.80;99.90;;;;;;5033770;28;20048;-74
2023/06/06 01:10:34;;;;;;;3.88;3.13;;;18.80;99.90;;;;;;5032696;28;20421;-75
2023/06/06 01:13:20;;;;;;;5.68;4.13;;;18.80;99.90;;;;;;5033842;28;20037;-74
2023/06/06 01:15:52;;;;;;;6.57;3.80;;;18.70;99.90;;;;;;5032485;28;20041;-74
2023/06/06 01:18:21;;;;;;;8.32;3.70;;;18.70;99.90;;;;;;5031416;28;20060;-74
2023/06/06 01:20:49;;;;;;;4.55;3.50;;;18.60;99.90;;;;;;5033199;28;20421;-75
2023/06/06 01:23:17;;;;;;;5.13;3.42;;;18.60;99.90;;;;;;5032379;28;20046;-74
2023/06/06 01:25:47;;;;;;;5.55;3.50;;;18.50;99.90;;;;;;5032781;28;20073;-75
2023/06/06 01:28:16;;;;;;;6.38;3.72;;;18.50;99.90;;;;;;5032994;28;20124;-75
2023/06/06 01:30:44;;;;;;;6.97;3.60;;;18.50;99.90;;;;;;5033558;28;20553;-75
2023/06/06 01:33:38;;;;;;;7.30;3.38;;;18.40;99.90;;;;;;5031772;28;20460;-74
2023/06/06 01:36:28;;;;;;;5.78;3.92;;;18.30;99.90;;;;;;5033507;28;20045;-74
2023/06/06 01:39:25;;;;;;;6.78;3.85;;;18.30;99.90;;;;;;5030604;28;20075;-74
2023/06/06 01:41:54;;;;;;;7.38;3.85;;;18.20;99.90;;;;;;5020468;28;20088;-74
2023/06/06 01:44:22;;;;;;;6.82;3.67;;;18.20;99.90;;;;;;5033452;28;20045;-74
2023/06/06 01:46:49;;;;;;;6.97;3.75;;;18.20;99.90;;;;;;5031110;28;20068;-74
2023/06/06 01:49:16;;;;;;;6.40;3.75;;;18.10;99.90;;;;;;5032649;28;20589;-74
2023/06/06 01:51:44;;;;;;;6.72;3.20;;;18.10;99.90;;;;;;5031902;28;20460;-74
2023/06/06 01:54:11;;;;;;;7.18;3.60;;;18.10;99.90;;;;;;5017902;28;20049;-75
2023/06/06 01:56:37;;;;;;;4.88;3.20;;;18.00;99.90;;;;;;5033328;28;20045;-73
2023/06/06 01:59:04;;;;;;;4.45;3.40;;;18.00;99.90;;;;;;5031961;28;20418;-75
2023/06/06 02:01:31;;;;;;;3.83;3.20;;;18.00;99.90;;;;;;5033020;28;20076;-74
2023/06/06 02:03:58;;;;;;;5.97;3.80;;;17.90;99.90;;;;;;5032920;28;20053;-75
2023/06/06 02:06:25;;;;;;;6.60;3.22;;;17.90;99.90;;;;;;5026305;28;20042;-74
2023/06/06 02:08:51;;;;;;;6.80;3.53;;;17.90;99.90;;;;;;5032637;28;20037;-73
2023/06/06 02:11:18;;;;;;;5.18;3.35;;;17.80;99.90;;;;;;5031684;28;20092;-76
2023/06/06 02:13:45;;;;;;;6.00;4.13;;;17.80;99.90;;;;;;5033068;28;20037;-74
2023/06/06 02:16:13;;;;;;;5.78;3.28;;;17.70;99.90;;;;;;5032905;28;20049;-74
2023/06/06 02:18:44;;;;;;;5.10;3.83;;;17.70;99.90;;;;;;5032122;28;20052;-74
2023/06/06 02:21:15;;;;;;;8.43;3.80;;;17.70;99.90;;;;;;5031663;28;20505;-75
2023/06/06 02:23:42;;;;;;;5.70;3.25;;;17.70;99.90;;;;;;5032807;28;20041;-74
2023/06/06 02:26:09;;;;;;;7.15;4.05;;;17.60;99.90;;;;;;5032343;28;20471;-75
2023/06/06 02:28:36;;;;;;;5.93;3.17;;;17.60;99.90;;;;;;5030831;28;20160;-74
2023/06/06 02:31:03;;;;;;;5.72;3.08;;;17.60;99.90;;;;;;5032478;28;20049;-74
2023/06/06 02:33:30;;;;;;;4.63;3.22;;;17.50;99.90;;;;;;5031400;28;20050;-76
2023/06/06 02:35:57;;;;;;;4.43;3.50;;;17.50;99.90;;;;;;5026431;28;20464;-76
2023/06/06 02:38:23;;;;;;;8.00;3.42;;;17.40;99.90;;;;;;5031552;28;20378;-77
2023/06/06 02:40:50;;;;;;;9.18;3.90;;;17.40;99.90;;;;;;5032256;28;20080;-76
2023/06/06 02:43:17;;;;;;;11.40;3.67;;;17.40;99.90;;;;;;5032397;28;20053;-76
2023/06/06 02:45:43;;;;;;;6.78;3.78;;;17.40;99.90;;;;;;5031368;28;20080;-77
2023/06/06 02:48:10;;;;;;;5.78;3.42;;;17.30;99.90;;;;;;5031737;28;20087;-76
2023/06/06 02:50:37;;;;;;;6.10;3.25;;;17.30;99.90;;;;;;5031197;28;20461;-76
2023/06/06 02:53:04;;;;;;;5.63;3.95;;;17.30;99.90;;;;;;5032298;28;20064;-76
2023/06/06 02:55:31;;;;;;;6.47;3.55;;;17.20;99.90;;;;;;5029950;28;20049;-77
2023/06/06 02:57:57;;;;;;;5.97;3.15;;;17.20;99.90;;;;;;5031280;28;20049;-76
2023/06/06 03:00:24;;;;;;;4.97;3.15;;;17.20;99.90;;;;;;5031311;28;20096;-74
2023/06/06 03:02:51;;;;;;;4.93;3.70;;;17.20;99.90;;;;;;5032183;28;20463;-76
2023/06/06 03:05:18;;;;;;;4.75;3.70;;;17.10;99.90;;;;;;5031628;28;20116;-76
2023/06/06 03:07:44;;;;;;;7.25;4.25;;;17.10;99.90;;;;;;5030770;28;20073;-76
2023/06/06 03:10:11;;;;;;;4.47;3.63;;;17.10;99.90;;;;;;5021657;28;20095;-76
2023/06/06 03:12:38;;;;;;;7.80;4.32;;;17.00;99.90;;;;;;5029892;28;20080;-76
2023/06/06 03:15:05;;;;;;;9.65;3.70;;;17.00;99.90;;;;;;5030362;28;20087;-75
2023/06/06 03:17:32;;;;;;;4.22;3.60;;;17.00;99.90;;;;;;5030286;28;20049;-75
2023/06/06 03:19:59;;;;;;;6.60;4.38;;;17.00;99.90;;;;;;5029917;28;20052;-76
2023/06/06 03:22:25;;;;;;;7.85;4.25;;;17.00;99.90;;;;;;5030273;28;20497;-76
2023/06/06 03:24:52;;;;;;;4.25;3.60;;;16.90;99.90;;;;;;5028577;28;20081;-76
2023/06/06 03:27:19;;;;;;;6.28;3.40;;;16.90;99.90;;;;;;5029990;28;20049;-76
2023/06/06 03:29:46;;;;;;;7.03;3.65;;;16.90;99.90;;;;;;5029571;28;20051;-76
2023/06/06 03:32:12;;;;;;;4.65;3.40;;;16.80;99.90;;;;;;5030418;28;20103;-76
2023/06/06 03:34:39;;;;;;;5.78;3.95;;;16.80;99.90;;;;;;5027927;28;20513;-76
2023/06/06 03:37:07;;;;;;;5.47;3.85;;;16.80;99.90;;;;;;5028789;28;20041;-76
2023/06/06 03:39:33;;;;;;;5.25;3.70;;;16.70;99.90;;;;;;5026768;28;20041;-76
2023/06/06 03:42:01;;;;;;;7.13;4.15;;;16.70;99.90;;;;;;5031403;28;20453;-76
2023/06/06 03:44:27;;;;;;;8.18;3.67;;;16.70;99.90;;;;;;5031266;28;20480;-76
2023/06/06 03:46:54;;;;;;;4.00;3.42;;;16.70;99.90;;;;;;5031187;28;20037;-76
2023/06/06 03:49:21;;;;;;;4.72;3.38;;;16.70;99.90;;;;;;5030406;28;20080;-76
2023/06/06 03:51:48;;;;;;;5.35;3.58;;;16.70;99.90;;;;;;5031018;28;20041;-76
2023/06/06 03:54:15;;;;;;;6.32;3.70;;;16.60;99.90;;;;;;5028116;28;20520;-76
2023/06/06 03:56:42;;;;;;;5.10;3.88;;;16.70;99.90;;;;;;5030956;28;20497;-76
2023/06/06 03:59:13;;;;;;;5.85;3.80;;;16.70;99.90;;;;;;5030384;28;20049;-76
2023/06/06 04:01:40;;;;;;;7.85;3.50;;;16.60;99.90;;;;;;5030141;28;20049;-76
2023/06/06 04:04:08;;;;;;;6.47;4.22;;;16.60;99.90;;;;;;5029696;28;20498;-76
2023/06/06 04:06:37;;;;;;;6.40;3.97;;;16.60;99.90;;;;;;5024794;28;20407;-76
2023/06/06 04:09:07;;;;;;;7.40;4.15;;;16.60;99.90;;;;;;5026717;28;20052;-76
2023/06/06 04:11:35;;;;;;;9.70;4.53;;;16.60;99.90;;;;;;5022455;28;20065;-75
2023/06/06 04:14:02;;;;;;;4.90;3.42;;;16.60;99.90;;;;;;5031067;28;20041;-76
2023/06/06 04:16:29;;;;;;;5.90;3.35;;;16.60;99.90;;;;;;5029625;28;20100;-75
2023/06/06 04:18:56;;;;;;;10.48;4.22;;;16.60;99.90;;;;;;5030178;28;20077;-76
2023/06/06 04:21:22;;;;;;;6.30;3.70;;;16.60;99.90;;;;;;5029459;28;20050;-76
2023/06/06 04:23:49;;;;;;;7.72;4.22;;;16.60;99.90;;;;;;5030277;28;20104;-76
2023/06/06 04:26:31;;;;;;;6.68;3.88;;;16.60;99.90;;;;;;5034557;28;20045;-76
2023/06/06 04:28:59;;;;;;;9.93;3.95;;;16.70;99.90;;;;;;5034144;28;20037;-76
2023/06/06 04:31:29;;;;;;;6.75;3.70;;;16.70;99.90;;;;;;5034940;28;20073;-76
2023/06/06 04:33:56;;;;;;;6.33;4.00;;;16.70;99.90;;;;;;5034867;28;20073;-76
2023/06/06 04:36:24;;;;;;;7.88;3.88;;;16.70;99.90;;;;;;5034741;28;20292;-76
2023/06/06 04:38:51;;;;;;;6.38;3.97;;;16.80;99.90;;;;;;5032044;28;20068;-76
2023/06/06 04:41:22;;;;;;;9.20;4.60;;;16.80;99.90;;;;;;5034625;28;20491;-75
2023/06/06 04:43:52;;;;;;;7.32;3.70;;;16.90;99.90;;;;;;5033746;28;20099;-76
2023/06/06 04:46:21;;;;;;;5.93;3.88;;;16.90;99.90;;;;;;5034153;28;20068;-76
2023/06/06 04:48:56;;;;;;;8.80;3.97;;;17.00;99.90;;;;;;5032933;28;20460;-77
2023/06/06 04:51:30;;;;;;;4.95;3.42;;;17.00;99.90;;;;;;5034650;28;20056;-76
2023/06/06 04:54:03;;;;;;;6.78;3.83;;;17.10;99.90;;;;;;5026314;28;20049;-76
2023/06/06 04:56:30;;;;;;;5.82;3.85;;;17.20;99.90;;;;;;5034285;28;20057;-76
2023/06/06 04:59:05;;;;;;;5.32;3.40;;;17.30;99.90;;;;;;5033502;28;20555;-76
2023/06/06 05:01:41;;;;;;;6.07;3.88;;;17.40;99.90;;;;;;5033999;28;20095;-76
2023/06/06 05:04:07;;;;;;;5.38;3.60;;;17.50;99.90;;;;;;5032943;28;20041;-76
2023/06/06 05:06:34;;;;;;;8.82;3.63;;;17.60;99.90;;;;;;5033031;28;20042;-76
2023/06/06 05:09:06;;;;;;;5.57;4.05;;;17.70;99.90;;;;;;5031465;28;20079;-77
2023/06/06 05:11:33;;;;;;;7.68;4.95;;;17.80;99.90;;;;;;5029450;28;20049;-76
2023/06/06 05:14:00;;;;;;;6.57;4.13;;;17.90;99.90;;;;;;5031918;28;20540;-77
2023/06/06 05:16:27;;;;;;;8.52;4.28;;;18.00;99.90;;;;;;5033217;28;20089;-76
2023/06/06 05:18:53;;;;;;;9.15;5.55;;;18.10;99.90;;;;;;5032704;28;20048;-76
2023/06/06 05:21:21;;;;;;;11.85;6.32;;;18.20;99.90;;;;;;5032771;28;20061;-76
2023/06/06 05:23:48;;;;;;;5.85;4.28;;;18.30;99.90;;;;;;5032412;28;20124;-76
2023/06/06 05:26:15;;;;;;;6.78;3.90;;;18.40;99.90;;;;;;5029829;28;20421;-76
2023/06/06 05:28:41;;;;;;;6.85;4.30;;;18.50;99.90;;;;;;5030591;28;20043;-76
2023/06/06 05:31:08;;;;;;;4.50;3.88;;;18.50;99.90;;;;;;5033554;28;20068;-76
2023/06/06 05:33:44;;;;;;;7.60;3.97;;;18.60;99.90;;;;;;5024093;28;20042;-76
2023/06/06 05:36:11;;;;;;;4.30;3.78;;;18.70;99.90;;;;;;5031955;28;20505;-76
2023/06/06 05:38:38;;;;;;;3.92;3.42;;;18.80;99.90;;;;;;5032324;28;20055;-76
2023/06/06 05:41:04;;;;;;;5.07;3.90;;;18.90;99.90;;;;;;5031142;28;20049;-75
2023/06/06 05:43:33;;;;;;;5.93;4.03;;;19.00;99.90;;;;;;5033342;28;20084;-74
2023/06/06 05:46:01;;;;;;;5.45;4.25;;;19.00;99.90;;;;;;5033430;28;20429;-74
2023/06/06 05:48:28;;;;;;;9.52;4.05;;;19.10;99.90;;;;;;5032831;28;20132;-75
2023/06/06 05:50:56;;;;;;;8.38;3.50;;;19.10;99.90;;;;;;5033534;28;20045;-77
2023/06/06 05:53:23;;;;;;;7.72;3.45;;;19.20;99.90;;;;;;5033630;28;20049;-74
2023/06/06 05:55:50;;;;;;;9.43;3.90;;;19.20;99.90;;;;;;5029921;28;20437;-73
2023/06/06 05:58:17;;;;;;;6.00;3.88;;;19.20;99.90;;;;;;5032733;28;20131;-74
2023/06/06 06:00:43;;;;;;;6.35;3.53;;;19.30;99.90;;;;;;5033335;28;20050;-74
2023/06/06 06:03:12;;;;;;;8.68;4.15;;;19.30;99.90;;;;;;5022554;28;20093;-73
2023/06/06 06:05:39;;;;;;;5.45;3.80;;;19.30;99.90;;;;;;5032720;28;20037;-74
2023/06/06 06:08:06;;;;;;;7.63;3.85;;;19.40;99.90;;;;;;5032447;28;20446;-73
2023/06/06 06:10:35;;;;;;;7.40;4.13;;;19.40;99.90;;;;;;5031210;28;20104;-77
2023/06/06 06:13:03;;;;;;;9.95;3.95;;;19.50;99.90;;;;;;5032094;28;20083;-75
2023/06/06 06:15:31;;;;;;;9.75;4.20;;;19.40;99.90;;;;;;5031515;28;20057;-76
2023/06/06 06:17:58;;;;;;;5.40;4.20;;;19.50;99.90;;;;;;5029379;28;20046;-76
2023/06/06 06:20:25;;;;;;;7.00;4.30;;;19.50;99.90;;;;;;5032918;28;20417;-76
2023/06/06 06:22:52;;;;;;;7.20;3.65;;;19.50;99.90;;;;;;5032947;28;20092;-76
2023/06/06 06:25:20;;;;;;;7.28;4.10;;;19.50;99.90;;;;;;5029446;28;20049;-76
2023/06/06 06:27:47;;;;;;;8.38;4.60;;;19.50;99.90;;;;;;5032694;28;20129;-76
2023/06/06 06:30:15;;;;;;;6.95;3.88;;;19.50;99.90;;;;;;5031913;28;20041;-75
2023/06/06 06:32:44;;;;;;;5.93;3.97;;;19.50;99.90;;;;;;5031398;28;20551;-76
2023/06/06 06:35:10;;;;;;;11.35;5.45;;;19.50;99.90;;;;;;5030427;28;20087;-76
2023/06/06 06:37:39;;;;;;;9.63;4.20;;;19.50;99.90;;;;;;5031346;28;20084;-75
2023/06/06 06:40:10;;;;;;;5.18;4.05;;;19.50;99.90;;;;;;5032189;28;20103;-76
2023/06/06 06:42:43;;;;;;;8.00;4.40;;;19.50;99.90;;;;;;5032397;28;20120;-76
2023/06/06 06:45:13;;;;;;;8.35;3.70;;;19.50;99.90;;;;;;5032494;28;20091;-76
2023/06/06 06:47:40;;;;;;;9.53;4.60;;;19.50;99.90;;;;;;5031519;28;20068;-76
2023/06/06 06:50:08;;;;;;;5.93;4.30;;;19.40;99.90;;;;;;5030637;28;20038;-77
2023/06/06 06:52:35;;;;;;;8.75;4.60;;;19.40;99.90;;;;;;5032191;28;20572;-76
2023/06/06 06:55:04;;;;;;;6.55;3.95;;;19.40;99.90;;;;;;5032196;28;20038;-76
2023/06/06 06:57:33;;;;;;;6.45;4.30;;;19.40;99.90;;;;;;5032824;28;20523;-76
2023/06/06 07:00:11;;;;;;;10.90;4.00;;;19.40;99.90;;;;;;5035483;28;20049;-76
2023/06/06 07:02:44;;;;;;;5.47;4.18;;;19.40;99.90;;;;;;5031866;28;20096;-76
2023/06/06 07:05:14;;;;;;;6.53;4.13;;;19.40;99.90;;;;;;5028004;28;20095;-76
2023/06/06 07:07:50;;;;;;;6.55;4.25;;;19.40;99.90;;;;;;5031822;28;20064;-76
2023/06/06 07:10:17;;;;;;;7.03;3.78;;;19.50;99.90;;;;;;5031302;28;20049;-77
2023/06/06 07:12:48;;;;;;;6.72;3.72;;;19.50;99.90;;;;;;5028560;28;20045;-77
2023/06/06 07:15:16;;;;;;;9.70;4.25;;;19.50;99.90;;;;;;5030031;28;20081;-76
2023/06/06 07:17:48;;;;;;;9.23;4.53;;;19.50;99.90;;;;;;5030841;28;20081;-77
2023/06/06 07:20:15;;;;;;;7.38;4.22;;;19.60;99.90;;;;;;5027895;28;20068;-76
2023/06/06 07:22:42;;;;;;;8.90;4.40;;;19.60;99.90;;;;;;5031388;28;20076;-76
2023/06/06 07:25:09;;;;;;;4.93;3.90;;;19.60;99.90;;;;;;5031774;28;20425;-76
2023/06/06 07:27:37;;;;;;;8.25;3.95;;;19.60;99.90;;;;;;5031260;28;20475;-77
2023/06/06 07:30:12;;;;;;;8.48;4.18;;;19.70;99.90;;;;;;5029475;28;20049;-76
2023/06/06 07:32:43;;;;;;;8.30;4.18;;;19.70;99.90;;;;;;5030689;28;20076;-76
2023/06/06 07:35:12;;;;;;;7.88;4.25;;;19.80;99.90;;;;;;5030242;28;20048;-76
2023/06/06 07:37:39;;;;;;;6.88;3.80;;;19.80;99.90;;;;;;5031072;28;20057;-76
2023/06/06 07:40:09;;;;;;;7.43;3.72;;;19.80;99.90;;;;;;5031050;28;20145;-76
2023/06/06 07:42:36;;;;;;;8.95;4.25;;;19.90;99.90;;;;;;5030014;28;20084;-76
2023/06/06 07:45:06;;;;;;;7.38;4.30;;;19.90;99.90;;;;;;5025145;28;20425;-77
2023/06/06 07:47:33;;;;;;;9.00;3.83;;;19.90;99.90;;;;;;5030026;28;20437;-76
2023/06/06 07:50:02;;;;;;;9.30;4.00;;;19.90;99.90;;;;;;5030766;28;20045;-76
2023/06/06 07:52:30;;;;;;;6.85;3.90;;;19.90;99.90;;;;;;5020989;28;20146;-76
2023/06/06 07:54:58;;;;;;;8.70;3.38;;;20.00;99.90;;;;;;5031130;28;20524;-76
2023/06/06 07:57:27;;;;;;;9.35;4.40;;;20.00;99.90;;;;;;5028912;28;20057;-77
2023/06/06 07:59:54;;;;;;;14.02;4.35;;;20.00;99.90;;;;;;5029165;28;20080;-75
2023/06/06 08:02:22;;;;;;;8.90;4.50;;;20.10;99.90;;;;;;5031038;28;20061;-76
2023/06/06 08:04:50;;;;;;;8.43;5.25;;;20.10;99.90;;;;;;5031287;28;20045;-76
2023/06/06 08:07:18;;;;;;;8.40;4.40;;;20.20;99.90;;;;;;5030728;28;20049;-76
2023/06/06 08:09:45;;;;;;;7.03;4.00;;;20.20;99.90;;;;;;5029878;28;20041;-77
2023/06/06 08:12:13;;;;;;;7.35;4.18;;;20.20;99.90;;;;;;5029211;28;20042;-77
2023/06/06 08:14:40;;;;;;;9.25;4.30;;;20.20;99.90;;;;;;5029298;28;20050;-76
2023/06/06 08:17:07;;;;;;;7.10;4.25;;;20.20;99.90;;;;;;5031153;28;20542;-77
2023/06/06 08:19:34;;;;;;;7.35;4.55;;;20.20;99.90;;;;;;5030533;28;20063;-76
2023/06/06 08:22:02;;;;;;;7.70;4.57;;;20.20;99.90;;;;;;5030753;28;20053;-77
2023/06/06 08:24:29;;;;;;;12.65;4.63;;;20.20;99.90;;;;;;5029913;28;20467;-77
2023/06/06 08:26:57;;;;;;;6.15;4.22;;;20.30;99.90;;;;;;5031101;28;20042;-76
2023/06/06 08:29:24;;;;;;;7.15;4.38;;;20.30;99.90;;;;;;5028383;28;20132;-76
2023/06/06 08:31:52;;;;;;;9.45;4.68;;;20.30;99.90;;;;;;5030969;28;20049;-76
2023/06/06 08:34:19;;;;;;;10.10;5.72;;;20.40;99.90;;;;;;5028279;28;20100;-76
2023/06/06 08:36:46;;;;;;;9.77;5.18;;;20.40;99.90;;;;;;5030287;28;20053;-76
2023/06/06 08:39:13;;;;;;;11.20;5.07;;;20.40;99.90;;;;;;5029397;28;20052;-77
2023/06/06 08:41:49;;;;;;;7.63;4.90;;;20.50;99.90;;;;;;5030820;28;20460;-76
2023/06/06 08:44:18;;;;;;;9.73;4.88;;;20.50;99.90;;;;;;5027726;28;20095;-76
2023/06/06 08:46:47;;;;;;;10.70;4.55;;;20.60;99.90;;;;;;5017598;28;20045;-76
2023/06/06 08:49:19;;;;;;;8.85;4.78;;;20.60;99.90;;;;;;5030155;28;20413;-76
2023/06/06 08:51:50;;;;;;;10.15;4.65;;;20.60;99.90;;;;;;5029484;28;20053;-77
2023/06/06 08:54:19;;;;;;;8.20;4.28;;;20.60;99.90;;;;;;5030676;28;20045;-76
2023/06/06 08:56:47;;;;;;;12.57;4.80;;;20.70;99.90;;;;;;5030722;28;20046;-77
2023/06/06 08:59:15;;;;;;;9.20;4.78;;;20.70;99.90;;;;;;5029923;28;20069;-75
2023/06/06 09:01:43;;;;;;;9.82;4.70;;;20.70;99.90;;;;;;5030503;28;20100;-76
2023/06/06 09:04:13;;;;;;;7.25;4.43;;;20.80;99.90;;;;;;5027978;28;20575;-76
2023/06/06 09:06:44;;;;;;;10.32;4.95;;;20.90;99.90;;;;;;5029378;28;20054;-76
2023/06/06 09:09:12;;;;;;;10.05;4.25;;;20.90;99.90;;;;;;5029985;28;20049;-76
2023/06/06 09:11:40;;;;;;;9.07;4.63;;;21.00;99.90;;;;;;5033238;28;20045;-77
2023/06/06 09:14:07;;;;;;;8.18;4.78;;;21.00;99.90;;;;;;5033886;28;20065;-76
2023/06/06 09:16:34;;;;;;;8.00;4.07;;;21.00;99.90;;;;;;5029746;28;20130;-77
2023/06/06 09:19:02;;;;;;;5.95;3.92;;;21.10;99.90;;;;;;5033571;28;20488;-77
2023/06/06 09:21:33;;;;;;;9.27;4.40;;;21.10;99.90;;;;;;5034204;28;20103;-77
2023/06/06 09:24:00;;;;;;;6.38;4.32;;;21.20;99.90;;;;;;5031828;28;20519;-76
2023/06/06 09:26:28;;;;;;;6.78;4.15;;;21.20;99.90;;;;;;5030759;28;20085;-76
2023/06/06 09:28:55;;;;;;;6.18;4.15;;;21.20;99.90;;;;;;5031146;28;20493;-76
2023/06/06 09:31:32;;;;;;;6.78;4.50;;;21.20;99.90;;;;;;5031867;28;20124;-76
2023/06/06 09:34:00;;;;;;;9.35;4.43;;;21.30;99.90;;;;;;5031978;28;20037;-76
2023/06/06 09:36:28;;;;;;;8.13;4.18;;;21.30;99.90;;;;;;5033007;28;20053;-76
2023/06/06 09:39:01;;;;;;;11.00;4.07;;;21.40;99.90;;;;;;5033108;28;20048;-76
2023/06/06 09:41:28;;;;;;;10.50;4.10;;;21.40;99.90;;;;;;5029746;28;20107;-77
2023/06/06 09:43:55;;;;;;;7.85;4.28;;;21.50;99.90;;;;;;5033915;28;20053;-76
2023/06/06 09:46:25;;;;;;;6.55;3.70;;;21.50;99.90;;;;;;5033604;28;20136;-76
2023/06/06 09:48:56;;;;;;;8.65;4.50;;;21.60;99.90;;;;;;5032250;28;20045;-77
2023/06/06 09:51:23;;;;;;;6.53;3.75;;;21.60;99.90;;;;;;5031229;28;20103;-75
2023/06/06 09:53:51;;;;;;;9.15;4.60;;;21.60;99.90;;;;;;5033152;28;20045;-75
2023/06/06 09:56:23;;;;;;;9.80;3.97;;;21.70;99.90;;;;;;5033271;28;20120;-75
2023/06/06 09:58:55;;;;;;;8.75;4.13;;;21.70;99.90;;;;;;5031464;28;20099;-75
2023/06/06 10:01:28;;;;;;;7.57;4.35;;;21.80;99.90;;;;;;5031834;28;20045;-75
2023/06/06 10:03:58;;;;;;;6.73;3.80;;;21.80;99.90;;;;;;5029223;28;20041;-75
2023/06/06 10:06:33;;;;;;;7.75;4.25;;;21.90;99.90;;;;;;5033168;28;20293;-75
2023/06/06 10:09:02;;;;;;;8.50;4.65;;;21.90;99.90;;;;;;5032384;28;20048;-75
2023/06/06 10:11:30;;;;;;;6.90;3.75;;;22.00;99.90;;;;;;5033236;28;20057;-75
2023/06/06 10:13:57;;;;;;;8.63;4.35;;;22.00;99.90;;;;;;5032961;28;20048;-75
2023/06/06 10:16:27;;;;;;;6.47;3.95;;;22.10;99.90;;;;;;5030985;28;20080;-75
2023/06/06 10:18:57;;;;;;;8.23;4.70;;;22.10;99.90;;;;;;5028778;28;20065;-75
2023/06/06 10:21:25;;;;;;;8.57;4.50;;;22.20;99.90;;;;;;5032752;28;20050;-76
2023/06/06 10:23:53;;;;;;;5.80;4.30;;;22.20;99.90;;;;;;5024611;28;20513;-76
2023/06/06 10:26:26;;;;;;;7.35;4.68;;;22.30;99.90;;;;;;5031652;28;20568;-75
2023/06/06 10:29:07;;;;;;;5.50;3.70;;;22.30;99.90;;;;;;5030734;28;20041;-75
2023/06/06 10:31:55;;;;;;;12.80;4.10;;;22.30;99.90;;;;;;5030379;28;20050;-75
2023/06/06 10:34:27;;;;;;;7.75;4.80;;;22.40;99.90;;;;;;5020674;28;20057;-76
2023/06/06 10:36:56;;;;;;;6.28;4.00;;;22.40;99.90;;;;;;5030401;28;20115;-75
2023/06/06 10:39:25;;;;;;;10.52;4.65;;;22.50;99.90;;;;;;5030939;28;20061;-75
2023/06/06 10:41:58;;;;;;;6.65;4.53;;;22.50;99.90;;;;;;5032456;28;20144;-75
2023/06/06 10:44:32;;;;;;;14.95;5.35;;;22.60;99.90;;;;;;5019481;28;20058;-76
2023/06/06 10:47:39;;;;;;;7.28;4.13;;;22.60;99.90;;;;;;5034826;28;20124;-75
2023/06/06 10:50:08;;;;;;;6.15;4.70;;;22.70;99.90;;;;;;4962878;28;20043;-75
2023/06/06 10:52:43;;;;;;;7.03;4.35;;;22.70;99.90;;;;;;4957495;28;20052;-75
2023/06/06 10:55:17;;;;;;;7.15;4.30;;;22.70;99.90;;;;;;4995532;28;20050;-75
2023/06/06 10:58:03;;;;;;;8.30;4.60;;;22.80;99.90;;;;;;5031461;28;20045;-75
2023/06/06 11:00:34;;;;;;;6.90;4.63;;;22.80;99.90;;;;;;5031941;28;20053;-75
2023/06/06 11:03:09;;;;;;;11.23;5.35;;;22.90;99.90;;;;;;5028233;28;20041;-75
2023/06/06 11:06:01;;;;;;;9.30;5.22;;;22.90;99.90;;;;;;5031383;28;20049;-75
2023/06/06 11:08:36;;;;;;;7.18;4.65;;;22.90;99.90;;;;;;5027519;28;20481;-75
2023/06/06 11:11:15;;;;;;;8.20;4.43;;;23.00;99.90;;;;;;5029249;28;20041;-76
2023/06/06 11:14:09;;;;;;;9.97;5.50;;;22.90;99.90;;;;;;5031909;28;20045;-75
2023/06/06 11:16:39;;;;;;;7.43;4.50;;;23.00;99.90;;;;;;5030940;28;20343;-75
2023/06/06 11:19:08;;;;;;;5.95;4.28;;;23.00;99.90;;;;;;5026513;28;20453;-75
2023/06/06 11:21:38;;;;;;;6.18;4.15;;;23.00;99.90;;;;;;5032125;28;20055;-75
2023/06/06 11:24:06;;;;;;;7.25;4.18;;;23.00;99.90;;;;;;5026822;28;20049;-76
2023/06/06 11:26:34;;;;;;;7.65;3.88;;;23.10;99.90;;;;;;5030928;28;20674;-75
2023/06/06 11:29:02;;;;;;;6.88;4.47;;;23.10;99.90;;;;;;5031237;28;20111;-76
2023/06/06 11:31:30;;;;;;;8.30;4.10;;;23.10;99.90;;;;;;5031568;28;20049;-75
2023/06/06 11:34:03;;;;;;;9.43;4.85;;;23.20;99.90;;;;;;5017798;28;20045;-76
2023/06/06 11:36:30;;;;;;;5.80;3.75;;;23.30;99.90;;;;;;5029885;28;20104;-76
2023/06/06 11:39:03;;;;;;;6.22;3.83;;;23.30;99.90;;;;;;5030813;28;20045;-76
2023/06/06 11:41:33;;;;;;;7.00;4.50;;;23.30;99.90;;;;;;5028269;28;20053;-75
2023/06/06 11:44:00;;;;;;;8.63;4.10;;;23.40;99.90;;;;;;5031275;28;20052;-76
2023/06/06 11:46:29;;;;;;;5.13;3.47;;;23.50;99.90;;;;;;5031485;28;20049;-76
2023/06/06 11:48:59;;;;;;;6.97;4.28;;;23.50;99.90;;;;;;5030437;28;20567;-76
2023/06/06 11:51:27;;;;;;;5.80;3.78;;;23.60;99.90;;;;;;5031327;28;20048;-76
2023/06/06 11:53:54;;;;;;;5.68;3.88;;;23.60;99.90;;;;;;5031097;28;20049;-75
2023/06/06 11:56:21;;;;;;;8.65;4.50;;;23.70;99.90;;;;;;5021354;28;20444;-75
2023/06/06 11:58:48;;;;;;;4.28;3.72;;;23.80;99.90;;;;;;5029705;28;20081;-76
2023/06/06 12:01:15;;;;;;;9.45;3.53;;;23.90;99.90;;;;;;5029751;28;20085;-76
2023/06/06 12:03:43;;;;;;;7.10;4.15;;;24.00;99.90;;;;;;5031328;28;20456;-76
2023/06/06 12:06:10;;;;;;;9.77;3.92;;;24.10;99.90;;;;;;5029363;28;20099;-76
2023/06/06 12:08:38;;;;;;;11.77;5.30;;;24.10;99.90;;;;;;5030614;28;20046;-76
2023/06/06 12:11:26;;;;;;;6.65;3.78;;;24.10;99.90;;;;;;5028114;28;20042;-76
2023/06/06 12:13:57;;;;;;;6.88;3.35;;;24.20;99.90;;;;;;5022774;28;20041;-76
2023/06/06 12:16:27;;;;;;;6.32;3.72;;;24.20;99.90;;;;;;5031244;28;20133;-76
2023/06/06 12:18:54;;;;;;;6.25;3.42;;;24.30;99.90;;;;;;5030748;28;20045;-76
2023/06/06 12:21:22;;;;;;;4.53;3.45;;;24.30;99.90;;;;;;5031196;28;20088;-75
2023/06/06 12:23:50;;;;;;;7.68;4.10;;;24.40;99.90;;;;;;5031002;28;20049;-76
2023/06/06 12:26:17;;;;;;;9.10;3.92;;;24.40;99.90;;;;;;5030645;28;20077;-75
2023/06/06 12:29:00;;;;;;;7.10;3.95;;;24.50;99.90;;;;;;5030188;28;20525;-75
2023/06/06 12:31:30;;;;;;;4.78;3.45;;;24.50;99.90;;;;;;5030527;28;20049;-76
2023/06/06 12:33:57;;;;;;;4.55;3.50;;;24.60;99.90;;;;;;5029645;28;20045;-75
2023/06/06 12:36:26;;;;;;;5.45;3.28;;;24.70;99.90;;;;;;5030979;28;20050;-75
2023/06/06 12:38:56;;;;;;;6.15;3.58;;;24.80;99.90;;;;;;5029778;28;20053;-76
2023/06/06 12:41:35;;;;;;;4.50;3.25;;;24.90;99.90;;;;;;5030473;28;20100;-76
2023/06/06 12:44:07;;;;;;;5.43;3.42;;;25.00;99.90;;;;;;5028583;28;20053;-75
2023/06/06 12:46:36;;;;;;;6.07;3.50;;;25.10;99.90;;;;;;5033423;28;20045;-76
2023/06/06 12:49:03;;;;;;;6.38;3.72;;;25.20;99.90;;;;;;5032435;28;20065;-76
2023/06/06 12:51:30;;;;;;;3.67;3.38;;;25.30;99.90;;;;;;5034440;28;20049;-76
2023/06/06 12:53:57;;;;;;;5.85;3.50;;;25.40;99.90;;;;;;5033668;28;20046;-76
2023/06/06 12:56:26;;;;;;;6.30;3.20;;;25.40;99.90;;;;;;5034156;28;20073;-76